createdAt,value
2022-12-25T00:02:56.694Z,4.18
2022-12-25T00:07:59.977Z,4.10
2022-12-25T00:13:04.574Z,3.65
2022-12-25T00:18:08.471Z,3.45
2022-12-25T00:23:11.819Z,3.88
2022-12-25T00:28:19.016Z,4.10
2022-12-25T00:33:29.111Z,4.20
2022-12-25T00:38:32.208Z,3.80
2022-12-25T00:43:37.238Z,3.05
2022-12-25T00:48:40.793Z,3.22
2022-12-25T00:53:44.216Z,3.60
2022-12-25T00:58:48.758Z,2.75
2022-12-25T01:03:53.604Z,3.78
2022-12-25T01:09:14.183Z,2.63
2022-12-25T01:14:18.753Z,2.60
2022-12-25T01:19:22.216Z,2.75
2022-12-25T01:24:32.776Z,2.30
2022-12-25T01:29:37.750Z,2.20
2022-12-25T01:34:40.957Z,2.47
2022-12-25T01:39:44.682Z,2.33
2022-12-25T01:45:27.586Z,2.33
2022-12-25T01:50:33.761Z,2.08
2022-12-25T01:55:38.999Z,3.65
2022-12-25T02:00:49.363Z,3.03
2022-12-25T02:05:57.842Z,3.28
2022-12-25T02:11:01.348Z,3.30
2022-12-25T02:16:12.555Z,3.35
2022-12-25T02:21:36.255Z,3.47
2022-12-25T02:27:03.706Z,3.78
2022-12-25T02:32:18.969Z,2.80
2022-12-25T02:37:28.873Z,2.58
2022-12-25T02:42:59.845Z,2.53
2022-12-25T02:48:27.354Z,2.80
2022-12-25T02:53:57.360Z,2.85
2022-12-25T02:59:18.084Z,2.38
2022-12-25T03:04:43.792Z,2.35
2022-12-25T03:10:12.474Z,2.25
2022-12-25T03:15:33.848Z,2.25
2022-12-25T03:20:56.877Z,2.40
2022-12-25T03:26:17.539Z,2.30
2022-12-25T03:31:23.375Z,2.13
2022-12-25T03:36:36.606Z,3.17
2022-12-25T03:42:04.086Z,3.00
2022-12-25T03:47:32.323Z,2.45
2022-12-25T03:52:56.580Z,2.28
2022-12-25T03:58:20.207Z,2.70
2022-12-25T04:03:46.246Z,2.13
2022-12-25T04:09:08.858Z,2.03
2022-12-25T04:14:29.368Z,2.95
2022-12-25T04:19:51.589Z,2.33
2022-12-25T04:25:13.794Z,2.08
2022-12-25T04:30:34.713Z,2.00
2022-12-25T04:36:04.361Z,1.98
2022-12-25T04:41:14.523Z,1.83
2022-12-25T04:46:18.148Z,2.67
2022-12-25T04:51:23.373Z,2.00
2022-12-25T04:56:30.419Z,3.00
2022-12-25T05:01:37.007Z,2.85
2022-12-25T05:06:42.965Z,2.60
2022-12-25T05:11:47.831Z,2.25
2022-12-25T05:16:51.228Z,2.58
2022-12-25T05:21:54.404Z,3.60
2022-12-25T05:26:59.174Z,3.20
2022-12-25T05:32:02.754Z,2.92
2022-12-25T05:37:06.288Z,3.58
2022-12-25T05:42:10.814Z,3.97
2022-12-25T05:47:15.432Z,3.35
2022-12-25T05:52:18.871Z,2.95
2022-12-25T05:57:23.666Z,3.05
2022-12-25T06:02:27.351Z,3.00
2022-12-25T06:07:33.623Z,2.92
2022-12-25T06:12:42.920Z,2.97
2022-12-25T06:17:46.398Z,3.58
2022-12-25T06:22:49.852Z,2.70
2022-12-25T06:27:54.712Z,2.60
2022-12-25T06:32:57.915Z,3.30
2022-12-25T06:38:01.302Z,3.40
2022-12-25T06:43:06.056Z,3.20
2022-12-25T06:48:09.239Z,3.05
2022-12-25T06:53:12.450Z,2.10
2022-12-25T06:58:22.710Z,2.45
2022-12-25T07:03:29.667Z,2.33
2022-12-25T07:08:36.641Z,2.40
2022-12-25T07:13:41.203Z,2.30
2022-12-25T07:18:44.597Z,2.30
2022-12-25T07:23:48.854Z,2.92
2022-12-25T07:28:53.434Z,3.40
2022-12-25T07:33:56.969Z,2.92
2022-12-25T07:39:02.129Z,3.30
2022-12-25T07:44:07.465Z,3.17
2022-12-25T07:49:12.485Z,4.88
2022-12-25T07:54:15.743Z,4.43
2022-12-25T07:59:20.533Z,5.90
2022-12-25T08:04:26.116Z,5.18
2022-12-25T08:09:29.509Z,4.55
2022-12-25T08:14:38.740Z,4.80
2022-12-25T08:19:43.730Z,4.03
2022-12-25T08:24:47.296Z,4.55
2022-12-25T08:29:53.823Z,4.55
2022-12-25T08:34:57.923Z,4.88
2022-12-25T08:40:06.093Z,4.97
2022-12-25T08:45:12.356Z,4.82
2022-12-25T08:50:29.354Z,4.05
2022-12-25T08:55:35.402Z,4.47
2022-12-25T09:00:45.959Z,3.20
2022-12-25T09:05:49.156Z,3.30
2022-12-25T09:10:52.416Z,3.30
2022-12-25T09:15:57.307Z,4.15
2022-12-25T09:21:01.567Z,3.35
2022-12-25T09:26:09.961Z,2.83
2022-12-25T09:31:21.233Z,2.28
2022-12-25T09:36:25.708Z,1.98
2022-12-25T09:41:34.695Z,2.60
2022-12-25T09:46:43.111Z,1.60
2022-12-25T09:51:50.049Z,2.42
2022-12-25T09:56:53.801Z,1.98
2022-12-25T10:02:22.252Z,1.75
2022-12-25T10:07:38.823Z,1.80
2022-12-25T10:12:52.560Z,1.58
2022-12-25T10:18:18.057Z,1.30
2022-12-25T10:23:27.388Z,1.90
2022-12-25T10:28:38.924Z,1.70
2022-12-25T10:33:43.995Z,1.65
2022-12-25T10:38:47.934Z,1.70
2022-12-25T10:43:52.534Z,1.63
2022-12-25T10:48:59.699Z,1.40
2022-12-25T10:54:03.997Z,1.50
2022-12-25T10:59:08.135Z,1.70
2022-12-25T11:04:22.013Z,1.70
2022-12-25T11:09:28.175Z,1.73
2022-12-25T11:14:37.251Z,1.50
2022-12-25T11:19:54.676Z,1.60
2022-12-25T11:25:00.284Z,1.65
2022-12-25T11:30:05.133Z,1.23
2022-12-25T11:35:15.168Z,1.60
2022-12-25T11:40:25.260Z,1.40
2022-12-25T11:45:36.528Z,1.15
2022-12-25T11:50:46.516Z,1.30
2022-12-25T11:55:55.467Z,1.25
2022-12-25T12:01:02.023Z,1.35
2022-12-25T12:06:14.753Z,1.70
2022-12-25T12:11:26.899Z,1.40
2022-12-25T12:16:30.733Z,2.10
2022-12-25T12:21:44.189Z,1.88
2022-12-25T12:26:49.423Z,2.13
2022-12-25T12:31:53.718Z,1.50
2022-12-25T12:37:03.721Z,1.23
2022-12-25T12:42:14.653Z,1.40
2022-12-25T12:47:34.437Z,1.45
2022-12-25T12:52:41.118Z,2.15
2022-12-25T12:57:46.107Z,2.00
2022-12-25T13:03:15.605Z,1.70
2022-12-25T13:08:34.926Z,1.60
2022-12-25T13:13:45.541Z,1.60
2022-12-25T13:18:49.575Z,1.58
2022-12-25T13:24:02.451Z,1.60
2022-12-25T13:29:19.887Z,1.50
2022-12-25T13:34:31.216Z,1.40
2022-12-25T13:39:37.563Z,1.80
2022-12-25T13:44:53.414Z,1.95
2022-12-25T13:50:00.126Z,1.38
2022-12-25T13:55:12.747Z,1.50
2022-12-25T14:00:23.202Z,1.40
2022-12-25T14:05:30.138Z,1.50
2022-12-25T14:10:42.140Z,1.60
2022-12-25T14:15:51.325Z,1.38
2022-12-25T14:21:04.772Z,1.58
2022-12-25T14:26:18.898Z,1.50
2022-12-25T14:31:29.252Z,1.52
2022-12-25T14:36:34.497Z,1.67
2022-12-25T14:41:43.648Z,1.13
2022-12-25T14:46:46.890Z,2.53
2022-12-25T14:51:50.170Z,2.00
2022-12-25T14:56:58.148Z,1.77
2022-12-25T15:02:14.999Z,1.50
2022-12-25T15:07:30.526Z,1.27
2022-12-25T15:12:35.098Z,1.50
2022-12-25T15:17:38.501Z,1.38
2022-12-25T15:23:10.031Z,1.65
2022-12-25T15:28:12.776Z,1.60
2022-12-25T15:33:17.689Z,1.63
2022-12-25T15:38:23.386Z,1.45
2022-12-25T15:43:46.443Z,3.83
2022-12-25T15:48:50.892Z,3.85
2022-12-25T15:53:55.296Z,2.08
2022-12-25T15:58:59.950Z,1.85
2022-12-25T16:04:04.349Z,1.23
2022-12-25T16:09:12.532Z,3.30
2022-12-25T16:14:21.864Z,1.30
2022-12-25T16:19:38.716Z,0.80
2022-12-25T16:24:46.677Z,1.13
2022-12-25T16:29:54.109Z,1.00
2022-12-25T16:35:07.713Z,0.93
2022-12-25T16:40:12.115Z,0.88
2022-12-25T16:45:17.177Z,0.77
2022-12-25T16:50:20.554Z,1.33
2022-12-25T16:55:30.192Z,0.73
2022-12-25T17:00:38.171Z,0.60
2022-12-25T17:05:45.560Z,0.80
2022-12-25T17:10:50.916Z,0.70
2022-12-25T17:21:27.655Z,0.80
2022-12-25T17:26:34.539Z,0.73
2022-12-25T17:31:43.176Z,0.70
2022-12-25T17:36:51.284Z,0.90
2022-12-25T17:41:54.715Z,0.60
2022-12-25T17:46:59.539Z,0.80
2022-12-25T17:52:09.121Z,1.02
2022-12-25T17:57:12.630Z,1.00
2022-12-25T18:02:34.004Z,0.75
2022-12-25T18:07:46.015Z,0.80
2022-12-25T18:12:49.810Z,0.98
2022-12-25T18:18:08.537Z,1.00
2022-12-25T18:23:13.064Z,1.20
2022-12-25T18:28:17.240Z,0.98
2022-12-25T18:33:33.659Z,0.90
2022-12-25T18:38:39.969Z,0.90
2022-12-25T18:43:52.402Z,1.00
2022-12-25T18:48:59.319Z,1.00
2022-12-25T18:54:10.873Z,1.05
2022-12-25T18:59:14.499Z,1.05
2022-12-25T19:04:19.266Z,1.00
2022-12-25T19:09:22.942Z,1.02
2022-12-25T19:14:28.441Z,1.33
2022-12-25T19:19:33.419Z,1.10
2022-12-25T19:24:37.986Z,1.30
2022-12-25T19:29:43.329Z,1.00
2022-12-25T19:34:52.833Z,1.08
2022-12-25T19:39:56.309Z,1.00
2022-12-25T19:44:59.551Z,4.90
2022-12-25T19:50:14.793Z,4.43
2022-12-25T19:55:23.267Z,2.60
2022-12-25T20:00:27.569Z,2.08
2022-12-25T20:05:33.526Z,1.60
2022-12-25T20:10:43.465Z,1.20
2022-12-25T20:15:51.666Z,1.08
2022-12-25T20:21:02.704Z,1.27
2022-12-25T20:26:06.584Z,1.40
2022-12-25T20:31:17.427Z,1.20
2022-12-25T20:36:22.664Z,1.00
2022-12-25T20:41:28.745Z,1.17
2022-12-25T20:46:33.256Z,1.63
2022-12-25T20:51:40.064Z,1.40
2022-12-25T20:56:45.853Z,1.23
2022-12-25T21:01:54.383Z,1.20
2022-12-25T21:07:00.457Z,1.17
2022-12-25T21:12:03.943Z,1.30
2022-12-25T21:17:07.807Z,1.20
2022-12-25T21:22:12.602Z,1.40
2022-12-25T21:27:16.035Z,1.30
2022-12-25T21:32:36.877Z,1.38
2022-12-25T21:37:41.644Z,1.08
2022-12-25T21:42:47.299Z,1.10
2022-12-25T21:48:01.661Z,1.30
2022-12-25T21:53:16.182Z,1.20
2022-12-25T21:58:19.531Z,1.17
2022-12-25T22:03:28.415Z,1.67
2022-12-25T22:08:37.630Z,1.38
2022-12-25T22:13:59.088Z,1.58
2022-12-25T22:19:20.038Z,2.00
2022-12-25T22:24:25.869Z,2.00
2022-12-25T22:29:31.795Z,2.17
2022-12-25T22:34:38.801Z,2.10
2022-12-25T22:39:45.991Z,1.70
2022-12-25T22:44:51.403Z,2.42
2022-12-25T22:49:57.115Z,1.58
2022-12-25T22:55:05.425Z,1.40
2022-12-25T23:00:10.976Z,1.25
2022-12-25T23:05:14.327Z,1.33
2022-12-25T23:10:22.154Z,1.60
2022-12-25T23:15:27.665Z,1.77
2022-12-25T23:20:51.042Z,1.30
2022-12-25T23:26:10.632Z,1.27
2022-12-25T23:31:15.355Z,1.33
2022-12-25T23:36:18.726Z,1.50
2022-12-25T23:41:23.447Z,1.83
2022-12-25T23:46:26.873Z,1.50
2022-12-25T23:51:30.338Z,2.08
2022-12-25T23:56:37.505Z,2.03
